Time;durP1;ratioP1;P1;durP2;ratioP2;P2;SDS_P1;SDS_P2;PMS_P1;PMS_P2;Temp;Humidity;BMP_temperature;BMP_pressure;BME280_temperature;BME280_humidity;BME280_pressure;Samples;Min_cycle;Max_cycle;Signal;HPM_P1;HPM_P2
2022/01/11 00:01:26;;;;;;;28.85;14.43;;;;;;;2.47;100.00;102976.66;5069951;28;20045;-31
2022/01/11 00:03:55;;;;;;;28.65;14.43;;;;;;;2.48;100.00;102986.66;5070800;28;20139;-38
2022/01/11 00:06:31;;;;;;;28.95;14.35;;;;;;;2.45;100.00;102987.03;5070583;28;20052;-41
2022/01/11 00:09:07;;;;;;;27.73;12.93;;;;;;;2.43;100.00;102981.72;5070191;28;20052;-33
2022/01/11 00:11:36;;;;;;;28.05;14.00;;;;;;;2.41;100.00;102979.16;5070946;28;20413;-37
2022/01/11 00:14:05;;;;;;;31.42;14.23;;;;;;;2.37;100.00;102991.63;5070536;28;20047;-35
2022/01/11 00:16:32;;;;;;;29.55;13.85;;;;;;;2.32;100.00;102984.97;5070070;28;20045;-37
2022/01/11 00:19:05;;;;;;;26.75;13.63;;;;;;;2.34;100.00;102997.50;5069211;28;20604;-36
2022/01/11 00:21:33;;;;;;;;;;;;;;;2.28;100.00;103003.78;5071473;28;20036;-36
2022/01/11 00:26:46;;;;;;;32.50;14.43;;;;;;;2.22;100.00;102996.28;5072000;28;20486;-41
2022/01/11 00:29:15;;;;;;;26.23;13.50;;;;;;;2.13;100.00;102993.84;5071964;28;20033;-36
2022/01/11 00:31:45;;;;;;;27.65;13.88;;;;;;;2.11;100.00;102996.78;5073299;28;20040;-40
2022/01/11 00:34:15;;;;;;;27.15;13.48;;;;;;;2.06;100.00;103000.09;5072969;28;20059;-35
2022/01/11 00:36:43;;;;;;;27.83;13.40;;;;;;;2.02;100.00;103000.66;5073845;28;20052;-35
2022/01/11 00:39:12;;;;;;;24.38;13.10;;;;;;;1.99;100.00;102988.16;5072940;28;20050;-34
2022/01/11 00:41:41;;;;;;;27.05;13.43;;;;;;;1.94;100.00;102996.13;5072830;28;20048;-34
2022/01/11 00:44:09;;;;;;;26.90;13.18;;;;;;;1.91;100.00;102999.25;5073421;28;20106;-35
2022/01/11 00:46:40;;;;;;;27.10;12.77;;;;;;;1.88;100.00;103009.78;5073943;28;20071;-40
2022/01/11 00:49:08;;;;;;;27.83;12.82;;;;;;;1.86;100.00;103009.97;5072715;28;20049;-32
2022/01/11 00:51:36;;;;;;;27.40;13.30;;;;;;;1.84;100.00;103008.44;5073233;28;20048;-33
2022/01/11 00:54:04;;;;;;;26.38;12.00;;;;;;;1.86;100.00;103003.59;5072284;28;20044;-39
2022/01/11 00:56:31;;;;;;;24.58;11.38;;;;;;;1.83;100.00;102998.47;5074276;28;20127;-36
2022/01/11 00:58:59;;;;;;;21.05;11.20;;;;;;;1.81;100.00;103004.16;5073078;28;20052;-34
2022/01/11 01:01:33;;;;;;;23.20;11.88;;;;;;;1.79;100.00;103000.78;5071418;28;20048;-33
2022/01/11 01:04:03;;;;;;;22.45;11.32;;;;;;;1.71;100.00;102995.34;5073758;28;20060;-33
2022/01/11 01:06:31;;;;;;;22.80;10.93;;;;;;;1.69;100.00;103008.44;5073033;28;20123;-33
2022/01/11 01:08:59;;;;;;;21.30;11.95;;;;;;;1.61;100.00;103003.84;5072346;28;20044;-37
2022/01/11 01:11:28;;;;;;;20.08;11.20;;;;;;;1.60;100.00;103010.41;5071638;28;20055;-37
2022/01/11 01:13:57;;;;;;;18.42;9.82;;;;;;;1.59;100.00;103011.47;5072400;28;20048;-35
2022/01/11 01:16:25;;;;;;;20.80;10.77;;;;;;;1.53;100.00;103011.34;5072228;28;20052;-32
2022/01/11 01:18:59;;;;;;;22.15;11.05;;;;;;;1.48;100.00;103016.56;5070768;28;20060;-30
2022/01/11 01:21:30;;;;;;;23.35;12.40;;;;;;;1.41;100.00;103021.06;5071843;28;20135;-33
2022/01/11 01:23:57;;;;;;;23.55;11.75;;;;;;;1.40;100.00;103025.72;5073754;28;20041;-33
2022/01/11 01:26:25;;;;;;;20.98;11.88;;;;;;;1.34;100.00;103021.84;5071187;28;20135;-34
2022/01/11 01:28:53;;;;;;;24.40;12.38;;;;;;;1.25;100.00;103022.06;5073687;28;20045;-32
2022/01/11 01:31:21;;;;;;;25.15;11.95;;;;;;;1.24;100.00;103021.22;5072949;28;20147;-31
2022/01/11 01:33:53;;;;;;;26.70;12.83;;;;;;;1.20;100.00;103024.53;5072533;28;20570;-37
2022/01/11 01:36:22;;;;;;;22.92;12.32;;;;;;;1.17;100.00;103019.41;5073032;28;20322;-32
2022/01/11 01:38:52;;;;;;;24.08;12.57;;;;;;;1.12;100.00;103025.44;5073257;28;20041;-36
2022/01/11 01:41:21;;;;;;;26.08;13.07;;;;;;;1.13;100.00;103024.41;5072063;28;20056;-38
2022/01/11 01:43:53;;;;;;;24.55;12.65;;;;;;;1.14;100.00;103022.53;5072093;28;20052;-43
2022/01/11 01:46:22;;;;;;;26.27;13.43;;;;;;;1.11;100.00;103025.63;5072079;28;20187;-35
2022/01/11 01:48:54;;;;;;;21.58;12.30;;;;;;;1.16;100.00;103031.44;5073387;28;20052;-39
2022/01/11 01:51:22;;;;;;;25.85;13.55;;;;;;;1.19;100.00;103033.84;5071381;28;20165;-35
2022/01/11 01:53:52;;;;;;;24.65;13.68;;;;;;;1.19;100.00;103034.69;5072493;28;20068;-37
2022/01/11 01:56:22;;;;;;;23.45;12.77;;;;;;;1.19;100.00;103040.19;5072745;28;20053;-36
2022/01/11 01:58:50;;;;;;;27.55;14.20;;;;;;;1.19;100.00;103034.69;5071454;28;20049;-38
2022/01/11 02:01:19;;;;;;;25.63;13.80;;;;;;;1.17;100.00;103033.16;5070493;28;20052;-31
2022/01/11 02:03:48;;;;;;;27.35;12.98;;;;;;;1.18;100.00;103032.97;5071567;28;20048;-41
2022/01/11 02:06:17;;;;;;;24.90;13.68;;;;;;;1.21;100.00;103039.97;5072479;28;20091;-34
2022/01/11 02:08:47;;;;;;;25.80;13.05;;;;;;;1.25;100.00;103042.19;5070570;28;20072;-37
2022/01/11 02:11:17;;;;;;;23.98;13.00;;;;;;;1.25;100.00;103044.06;5072371;28;20049;-42
2022/01/11 02:13:46;;;;;;;24.85;12.60;;;;;;;1.25;100.00;103044.06;5071333;28;20048;-39
2022/01/11 02:16:19;;;;;;;27.85;13.80;;;;;;;1.23;100.00;103047.00;5070624;28;20048;-30
2022/01/11 02:18:47;;;;;;;25.85;13.00;;;;;;;1.22;100.00;103039.78;5071191;28;20072;-34
2022/01/11 02:21:20;;;;;;;28.55;13.52;;;;;;;1.18;100.00;103037.63;5071110;28;20076;-34
2022/01/11 02:23:50;;;;;;;26.27;13.77;;;;;;;1.15;100.00;103041.59;5071057;28;20194;-33
2022/01/11 02:26:20;;;;;;;26.83;13.88;;;;;;;1.13;100.00;103043.66;5071035;28;20166;-30
2022/01/11 02:28:50;;;;;;;27.80;14.00;;;;;;;1.09;100.00;103041.47;5070082;28;20114;-37
2022/01/11 02:31:19;;;;;;;26.67;14.20;;;;;;;1.09;100.00;103044.19;5071263;28;20410;-40
2022/01/11 02:33:56;;;;;;;32.60;15.80;;;;;;;1.08;100.00;103037.84;5068055;28;20055;-32
2022/01/11 02:36:36;;;;;;;30.20;14.63;;;;;;;1.09;100.00;103038.72;5069224;28;20049;-36
2022/01/11 02:39:30;;;;;;;24.67;13.73;;;;;;;1.10;100.00;103037.66;5068852;28;20520;-36
2022/01/11 02:42:05;;;;;;;27.65;14.02;;;;;;;1.11;100.00;103039.38;5070628;28;20056;-34
2022/01/11 02:44:39;;;;;;;29.27;14.32;;;;;;;1.11;100.00;103034.75;5068523;28;20049;-36
2022/01/11 02:47:12;;;;;;;32.00;15.82;;;;;;;1.05;100.00;103032.72;5070633;28;20045;-33
2022/01/11 02:49:40;;;;;;;31.23;15.98;;;;;;;1.04;100.00;103037.34;5068896;28;20478;-41
2022/01/11 02:52:13;;;;;;;29.67;14.77;;;;;;;1.02;100.00;103033.06;5070712;28;20080;-35
2022/01/11 02:54:45;;;;;;;31.35;14.98;;;;;;;1.02;100.00;103038.56;5070384;28;20056;-36
2022/01/11 02:57:17;;;;;;;28.90;14.45;;;;;;;1.02;100.00;103042.19;5069571;28;21165;-39
2022/01/11 02:59:46;;;;;;;28.15;14.25;;;;;;;1.04;100.00;103037.34;5070368;28;20056;-32
2022/01/11 03:02:16;;;;;;;27.05;13.57;;;;;;;1.06;100.00;103039.06;5070412;28;20072;-36
2022/01/11 03:04:47;;;;;;;29.00;14.88;;;;;;;1.02;100.00;103044.06;5069876;28;20494;-35
2022/01/11 03:07:20;;;;;;;29.65;15.75;;;;;;;0.99;100.00;103047.22;5070326;28;20051;-32
2022/01/11 03:10:00;;;;;;;31.35;14.98;;;;;;;0.95;100.00;103048.59;5050655;28;20052;-33
2022/01/11 03:12:32;;;;;;;33.75;15.95;;;;;;;0.96;100.00;103053.06;5068240;28;20398;-36
2022/01/11 03:15:00;;;;;;;28.75;15.25;;;;;;;0.98;100.00;103060.09;5069266;28;20044;-34
2022/01/11 03:17:28;;;;;;;29.52;14.90;;;;;;;1.02;100.00;103058.66;5071561;28;20094;-34
2022/01/11 03:19:56;;;;;;;28.92;14.40;;;;;;;1.02;100.00;103061.41;5068806;28;20127;-36
2022/01/11 03:22:25;;;;;;;29.17;14.63;;;;;;;1.04;100.00;103058.50;5070014;28;20052;-37
2022/01/11 03:24:53;;;;;;;32.33;15.50;;;;;;;1.04;100.00;103064.00;5070297;28;20044;-35
2022/01/11 03:27:21;;;;;;;36.70;17.10;;;;;;;1.00;100.00;103060.75;5070137;28;20144;-33
2022/01/11 03:29:51;;;;;;;36.67;17.27;;;;;;;1.01;100.00;103065.19;5069474;28;20044;-31
2022/01/11 03:32:19;;;;;;;36.67;17.30;;;;;;;1.01;100.00;103065.19;5069092;28;20052;-41
2022/01/11 03:35:10;;;;;;;35.47;16.63;;;;;;;1.01;100.00;103054.22;5070951;28;20037;-33
2022/01/11 03:37:40;;;;;;;39.25;18.30;;;;;;;1.02;100.00;103050.44;5071038;28;20131;-33
2022/01/11 03:40:11;;;;;;;39.25;18.65;;;;;;;0.96;100.00;103039.31;5068717;28;20036;-33
2022/01/11 03:42:39;;;;;;;40.53;17.38;;;;;;;0.98;100.00;103040.84;5069754;28;20064;-34
2022/01/11 03:45:10;;;;;;;38.28;17.52;;;;;;;0.99;100.00;103044.47;5069130;28;20048;-37
2022/01/11 03:47:38;;;;;;;41.80;19.00;;;;;;;0.98;100.00;103038.09;5069002;28;20079;-32
2022/01/11 03:50:09;;;;;;;39.63;17.83;;;;;;;0.96;100.00;103045.69;5069211;28;20059;-36
2022/01/11 03:52:37;;;;;;;38.47;17.17;;;;;;;0.98;100.00;103056.50;5069652;28;20056;-34
2022/01/11 03:55:12;;;;;;;37.20;17.95;;;;;;;0.98;100.00;103054.59;5069843;28;20036;-36
2022/01/11 03:57:46;;;;;;;40.53;18.05;;;;;;;0.98;100.00;103060.09;5069687;28;20063;-35
2022/01/11 04:00:17;;;;;;;40.15;18.27;;;;;;;0.97;100.00;103063.88;5068607;28;20088;-34
2022/01/11 04:02:47;;;;;;;38.90;18.35;;;;;;;0.98;100.00;103068.34;5072636;28;20442;-36
2022/01/11 04:05:18;;;;;;;40.47;18.05;;;;;;;0.97;100.00;103074.88;5073492;28;20099;-37
2022/01/11 04:07:46;;;;;;;37.20;17.13;;;;;;;0.99;100.00;103074.69;5072734;28;20469;-37
2022/01/11 04:10:15;;;;;;;40.35;18.60;;;;;;;1.00;100.00;103070.88;5073251;28;20049;-31
2022/01/11 04:12:47;;;;;;;42.65;18.20;;;;;;;0.98;100.00;103071.09;5074430;28;20444;-32
2022/01/11 04:15:16;;;;;;;44.28;18.88;;;;;;;0.98;100.00;103065.59;5073001;28;20052;-33
2022/01/11 04:17:45;;;;;;;39.78;18.27;;;;;;;1.01;100.00;103067.09;5073146;28;20068;-34
2022/01/11 04:20:14;;;;;;;44.47;19.60;;;;;;;1.03;100.00;103059.53;5073333;28;20040;-37
2022/01/11 04:22:42;;;;;;;42.97;18.98;;;;;;;1.03;100.00;103062.28;5072155;28;20358;-38
2022/01/11 04:25:12;;;;;;;46.40;20.15;;;;;;;0.96;100.00;103053.94;5073317;28;20147;-36
2022/01/11 04:27:42;;;;;;;42.38;19.42;;;;;;;0.94;100.00;103042.25;5073155;28;20044;-36
2022/01/11 04:30:11;;;;;;;48.92;20.73;;;;;;;0.88;100.00;103048.47;5072488;28;20163;-33
2022/01/11 04:32:39;;;;;;;44.22;20.33;;;;;;;0.93;100.00;103056.19;5072883;28;20106;-40
2022/01/11 04:35:15;;;;;;;42.85;19.25;;;;;;;0.89;100.00;103049.31;5072732;28;20436;-39
2022/01/11 04:37:45;;;;;;;46.85;20.92;;;;;;;0.85;100.00;103065.31;5072391;28;20139;-36
2022/01/11 04:40:15;;;;;;;46.50;21.15;;;;;;;0.86;100.00;103061.53;5072002;28;20200;-30
2022/01/11 04:42:47;;;;;;;45.92;20.10;;;;;;;0.86;100.00;103067.03;5071870;28;20489;-37
2022/01/11 04:45:15;;;;;;;43.90;20.70;;;;;;;0.84;100.00;103066.34;5072954;28;20563;-33
2022/01/11 04:47:45;;;;;;;50.42;20.65;;;;;;;0.82;100.00;103067.56;5072291;28;20079;-38
2022/01/11 04:50:13;;;;;;;48.65;20.83;;;;;;;0.86;100.00;103060.66;5072067;28;20053;-38
2022/01/11 04:52:41;;;;;;;50.15;20.48;;;;;;;0.87;100.00;103055.00;5072499;28;20079;-33
2022/01/11 04:55:12;;;;;;;49.60;21.40;;;;;;;0.86;100.00;103061.53;5073049;28;20049;-40
2022/01/11 04:57:47;;;;;;;52.67;21.23;;;;;;;0.86;100.00;103056.03;5071623;28;20055;-35
2022/01/11 05:00:17;;;;;;;57.22;23.17;;;;;;;0.84;100.00;103060.84;5072669;28;20044;-33
2022/01/11 05:02:45;;;;;;;53.25;21.42;;;;;;;0.84;100.00;103062.75;5073583;28;20050;-38
2022/01/11 05:05:15;;;;;;;55.00;23.02;;;;;;;0.87;100.00;103071.50;5071584;28;20413;-35
2022/01/11 05:07:46;;;;;;;56.72;22.75;;;;;;;0.84;100.00;103062.75;5072084;28;20048;-34
2022/01/11 05:10:14;;;;;;;53.55;22.05;;;;;;;0.87;100.00;103062.38;5072489;28;20048;-32
2022/01/11 05:12:42;;;;;;;62.50;26.40;;;;;;;0.86;100.00;103064.28;5070656;28;20044;-35
2022/01/11 05:15:15;;;;;;;58.70;23.70;;;;;;;0.86;100.00;103072.53;5072609;28;20048;-36
2022/01/11 05:17:44;;;;;;;65.65;24.90;;;;;;;0.88;100.00;103078.69;5071230;28;20106;-43
2022/01/11 05:20:14;;;;;;;61.20;23.83;;;;;;;0.87;100.00;103067.88;5068734;28;20052;-33
2022/01/11 05:22:42;;;;;;;67.97;25.35;;;;;;;0.86;100.00;103071.66;5073066;28;20051;-35
2022/01/11 05:25:12;;;;;;;64.50;25.20;;;;;;;0.87;100.00;103071.50;5072488;28;20036;-32
2022/01/11 05:27:39;;;;;;;68.60;24.90;;;;;;;0.89;100.00;103066.66;5073794;28;20041;-36
2022/01/11 05:30:09;;;;;;;74.28;26.95;;;;;;;0.88;100.00;103064.97;5071889;28;20052;-37
2022/01/11 05:32:39;;;;;;;67.90;25.35;;;;;;;0.89;100.00;103065.81;5072541;28;20044;-31
2022/01/11 05:35:08;;;;;;;77.05;27.45;;;;;;;0.91;100.00;103069.25;5073068;28;20044;-31
2022/01/11 05:37:36;;;;;;;75.07;27.20;;;;;;;0.89;100.00;103068.56;5072730;28;20048;-33
2022/01/11 05:40:05;;;;;;;78.53;29.40;;;;;;;0.88;100.00;103064.09;5070857;28;20052;-36
2022/01/11 05:42:34;;;;;;;79.80;27.40;;;;;;;0.92;100.00;103068.19;5072984;28;20056;-36
2022/01/11 05:45:02;;;;;;;81.53;28.27;;;;;;;0.92;100.00;103074.56;5071037;28;20036;-39
2022/01/11 05:47:31;;;;;;;76.38;26.85;;;;;;;0.96;100.00;103078.66;5070892;28;20448;-35
2022/01/11 05:50:03;;;;;;;75.90;27.92;;;;;;;0.98;100.00;103083.97;5072146;28;20048;-36
2022/01/11 05:52:33;;;;;;;75.15;27.48;;;;;;;1.01;100.00;103087.19;5071157;28;20052;-38
2022/01/11 05:55:01;;;;;;;71.93;26.48;;;;;;;1.02;100.00;103086.16;5072502;28;20109;-40
2022/01/11 05:57:29;;;;;;;83.22;29.63;;;;;;;1.03;100.00;103087.03;5071935;28;20053;-35
2022/01/11 05:59:57;;;;;;;71.65;27.30;;;;;;;1.07;100.00;103090.28;5071606;28;20102;-37
2022/01/11 06:02:25;;;;;;;69.20;25.30;;;;;;;1.10;100.00;103090.75;5071244;28;20158;-31
2022/01/11 06:04:53;;;;;;;71.93;26.52;;;;;;;1.10;100.00;103095.41;5071181;28;20128;-33
2022/01/11 06:07:22;;;;;;;73.10;25.80;;;;;;;1.09;100.00;103089.06;5070680;28;20135;-35
2022/01/11 06:09:51;;;;;;;74.75;28.15;;;;;;;1.13;100.00;103097.78;5071107;28;20409;-34
2022/01/11 06:12:19;;;;;;;71.88;26.13;;;;;;;1.14;100.00;103091.25;5072603;28;20068;-38
2022/01/11 06:14:47;;;;;;;63.83;25.02;;;;;;;1.15;100.00;103098.47;5069851;28;20076;-36
2022/01/11 06:17:14;;;;;;;74.03;26.67;;;;;;;1.08;100.00;103087.34;5072273;28;20056;-30
2022/01/11 06:19:42;;;;;;;68.88;26.55;;;;;;;1.07;100.00;103088.38;5070922;28;20040;-38
2022/01/11 06:22:12;;;;;;;73.30;28.00;;;;;;;1.09;100.00;103094.56;5070349;28;20071;-33
2022/01/11 06:24:41;;;;;;;78.68;29.08;;;;;;;1.11;100.00;103091.63;5069984;28;20063;-39
2022/01/11 06:27:08;;;;;;;75.00;28.40;;;;;;;1.06;100.00;103088.56;5070713;28;20057;-31
2022/01/11 06:29:36;;;;;;;75.25;28.15;;;;;;;1.07;100.00;103090.28;5071284;28;20049;-39
2022/01/11 06:32:04;;;;;;;82.90;29.38;;;;;;;1.05;100.00;103090.44;5070310;28;20044;-37
2022/01/11 06:34:32;;;;;;;70.13;26.95;;;;;;;1.11;100.00;103091.63;5070092;28;20139;-35
2022/01/11 06:37:00;;;;;;;72.50;28.73;;;;;;;1.06;100.00;103083.91;5067376;28;20067;-36
2022/01/11 06:39:36;;;;;;;77.93;28.50;;;;;;;1.07;100.00;103085.63;5069811;28;20170;-30
2022/01/11 06:42:07;;;;;;;75.60;28.90;;;;;;;1.08;100.00;103086.47;5066292;28;20056;-37
2022/01/11 06:44:37;;;;;;;73.63;27.55;;;;;;;1.09;100.00;103097.31;5070511;28;20380;-41
2022/01/11 06:47:07;;;;;;;74.85;28.42;;;;;;;1.07;100.00;103093.88;5069999;28;20094;-32
2022/01/11 06:49:36;;;;;;;66.22;25.63;;;;;;;1.08;100.00;103098.34;5069774;28;20052;-40
2022/01/11 06:52:04;;;;;;;70.78;26.52;;;;;;;1.04;100.00;103092.34;5071385;28;20119;-33
2022/01/11 06:54:34;;;;;;;62.95;25.48;;;;;;;1.10;100.00;103095.41;5070051;28;20052;-38
2022/01/11 06:57:02;;;;;;;71.25;26.35;;;;;;;1.11;100.00;103099.88;5069253;28;20044;-33
2022/01/11 06:59:31;;;;;;;68.20;26.48;;;;;;;1.09;100.00;103108.28;5070497;28;20123;-38
2022/01/11 07:02:04;;;;;;;69.90;26.77;;;;;;;1.11;100.00;103108.97;5069914;28;20516;-34
2022/01/11 07:04:43;;;;;;;68.60;27.63;;;;;;;1.09;100.00;103107.44;5069474;28;20421;-41
2022/01/11 07:07:11;;;;;;;63.28;26.23;;;;;;;1.10;100.00;103117.41;5069675;28;20052;-41
2022/01/11 07:09:41;;;;;;;67.60;27.50;;;;;;;1.11;100.00;103106.22;5069622;28;20434;-36
2022/01/11 07:12:09;;;;;;;61.88;26.05;;;;;;;1.15;100.00;103110.31;5069009;28;20045;-40
2022/01/11 07:14:40;;;;;;;59.70;25.38;;;;;;;1.15;100.00;103117.72;5070086;28;20052;-37
2022/01/11 07:17:08;;;;;;;57.97;24.48;;;;;;;1.18;100.00;103128.34;5068897;28;20044;-33
2022/01/11 07:19:37;;;;;;;58.13;23.48;;;;;;;1.18;100.00;103131.97;5069736;28;20084;-34
2022/01/11 07:22:10;;;;;;;58.15;24.63;;;;;;;1.16;100.00;103131.28;5070032;28;20135;-34
2022/01/11 07:24:40;;;;;;;58.10;24.58;;;;;;;1.17;100.00;103132.16;5069134;28;20143;-33
2022/01/11 07:27:08;;;;;;;55.03;23.25;;;;;;;1.15;100.00;103136.97;5069552;28;20130;-40
2022/01/11 07:29:35;;;;;;;66.43;27.27;;;;;;;1.13;100.00;103139.03;5069664;28;20056;-35
2022/01/11 07:32:06;;;;;;;59.75;24.83;;;;;;;1.13;100.00;103141.78;5068561;28;20102;-39
2022/01/11 07:34:33;;;;;;;52.08;22.98;;;;;;;1.10;100.00;103144.91;5070506;28;20070;-42
2022/01/11 07:37:01;;;;;;;53.05;23.48;;;;;;;1.09;100.00;103151.44;5069225;28;20044;-37
2022/01/11 07:39:31;;;;;;;57.38;23.33;;;;;;;1.06;100.00;103165.53;5068535;28;20048;-35
2022/01/11 07:41:59;;;;;;;58.65;24.65;;;;;;;1.00;100.00;103162.47;5068836;28;20044;-37
2022/01/11 07:44:51;;;;;;;54.15;23.42;;;;;;;0.98;100.00;103158.19;5069030;28;20113;-36
2022/01/11 07:47:20;;;;;;;51.40;23.83;;;;;;;0.98;100.00;103161.81;5068058;28;20052;-37
2022/01/11 07:49:48;;;;;;;59.97;25.45;;;;;;;0.99;100.00;103168.16;5068392;28;20053;-39
2022/01/11 07:52:17;;;;;;;57.55;25.88;;;;;;;1.00;100.00;103167.09;5068562;28;20524;-38
2022/01/11 07:54:46;;;;;;;59.42;25.92;;;;;;;0.97;100.00;103179.34;5070525;28;20056;-35
2022/01/11 07:57:16;;;;;;;55.03;24.77;;;;;;;0.97;100.00;103173.84;5069237;28;20071;-34
2022/01/11 07:59:44;;;;;;;61.75;25.70;;;;;;;0.94;100.00;103171.44;5068451;28;20139;-31
2022/01/11 08:02:27;;;;;;;61.33;25.38;;;;;;;0.94;100.00;103181.59;5051649;28;20056;-39
2022/01/11 08:04:56;;;;;;;48.85;21.55;;;;;;;0.95;100.00;103181.41;5069122;28;20048;-37
2022/01/11 08:07:23;;;;;;;55.40;22.10;;;;;;;0.98;100.00;103186.53;5068382;28;20420;-32
2022/01/11 08:09:58;;;;;;;47.08;21.10;;;;;;;0.98;100.00;103200.28;5069155;28;20044;-35
2022/01/11 08:12:26;;;;;;;51.65;22.65;;;;;;;0.99;100.00;103192.91;5069078;28;20079;-32
2022/01/11 08:14:54;;;;;;;49.53;21.85;;;;;;;0.98;100.00;103188.44;5067868;28;20044;-33
2022/01/11 08:17:23;;;;;;;53.80;24.23;;;;;;;0.96;100.00;103188.63;5068875;28;20532;-37
2022/01/11 08:19:52;;;;;;;54.83;24.23;;;;;;;0.95;100.00;103186.91;5068838;28;20109;-38
2022/01/11 08:22:20;;;;;;;55.10;23.77;;;;;;;0.94;100.00;103189.81;5070053;28;20057;-30
2022/01/11 08:24:53;;;;;;;59.33;24.95;;;;;;;0.91;100.00;103184.69;5069134;28;20135;-39
2022/01/11 08:27:22;;;;;;;55.75;24.08;;;;;;;0.92;100.00;103191.91;5068143;28;20053;-39
2022/01/11 08:29:52;;;;;;;65.38;25.58;;;;;;;0.92;100.00;103191.91;5068797;28;20531;-34
2022/01/11 08:32:19;;;;;;;60.83;25.67;;;;;;;0.92;100.00;103195.50;5070530;28;20136;-37
2022/01/11 08:34:48;;;;;;;58.63;25.48;;;;;;;0.92;100.00;103194.63;5067989;28;20044;-34
2022/01/11 08:37:18;;;;;;;54.80;23.90;;;;;;;0.92;100.00;103203.75;5069334;28;20135;-34
2022/01/11 08:39:49;;;;;;;53.70;24.70;;;;;;;0.94;100.00;103195.31;5069039;28;20056;-38
2022/01/11 08:42:18;;;;;;;52.22;23.75;;;;;;;0.97;100.00;103200.47;5068086;28;20049;-38
2022/01/11 08:44:47;;;;;;;58.08;26.27;;;;;;;0.96;100.00;103201.50;5068197;28;20041;-38
2022/01/11 08:47:19;;;;;;;55.05;25.45;;;;;;;0.99;100.00;103192.91;5069197;28;20048;-38
2022/01/11 08:49:49;;;;;;;50.45;23.55;;;;;;;1.01;100.00;103191.66;5071160;28;20056;-37
2022/01/11 08:52:18;;;;;;;56.83;25.40;;;;;;;1.03;100.00;103194.22;5069021;28;20052;-34
2022/01/11 08:54:46;;;;;;;57.03;26.00;;;;;;;1.07;100.00;103183.75;5072272;28;20059;-37
2022/01/11 08:57:18;;;;;;;60.03;27.15;;;;;;;1.12;100.00;103189.56;5071062;28;20476;-31
2022/01/11 08:59:48;;;;;;;58.92;26.08;;;;;;;1.16;100.00;103182.69;5072807;28;20048;-36
2022/01/11 09:02:17;;;;;;;52.85;24.67;;;;;;;1.26;100.00;103194.28;5072439;28;20060;-40
2022/01/11 09:04:45;;;;;;;57.92;26.55;;;;;;;1.35;100.00;103198.72;5071615;28;20111;-38
2022/01/11 09:07:21;;;;;;;54.40;24.67;;;;;;;1.46;100.00;103195.56;5069605;28;20055;-36
2022/01/11 09:09:53;;;;;;;52.63;25.20;;;;;;;1.61;100.00;103188.22;5070754;28;20113;-35
2022/01/11 09:12:21;;;;;;;50.80;23.73;;;;;;;1.74;100.00;103187.63;5073243;28;20056;-34
2022/01/11 09:14:50;;;;;;;52.05;24.52;;;;;;;1.88;100.00;103192.31;5072242;28;20055;-38
2022/01/11 09:17:20;;;;;;;51.97;24.13;;;;;;;1.99;100.00;103191.03;5071341;28;20131;-37
2022/01/11 09:19:48;;;;;;;55.05;25.98;;;;;;;2.06;100.00;103187.34;5072250;28;20049;-34
2022/01/11 09:22:21;;;;;;;45.90;22.73;;;;;;;2.17;100.00;103202.59;5072112;28;20063;-32
2022/01/11 09:24:50;;;;;;;41.15;20.35;;;;;;;2.27;100.00;103205.91;5071717;28;20049;-34
2022/01/11 09:27:23;;;;;;;54.88;24.98;;;;;;;2.33;100.00;103218.94;5071936;28;20048;-36
2022/01/11 09:29:51;;;;;;;48.60;24.20;;;;;;;2.36;100.00;103215.81;5072300;28;20418;-37
2022/01/11 09:32:24;;;;;;;42.22;21.35;;;;;;;2.37;100.00;103220.28;5070759;28;20146;-32
2022/01/11 09:34:53;;;;;;;43.03;21.40;;;;;;;2.46;100.00;103226.56;5072287;28;20063;-36
2022/01/11 09:37:29;;;;;;;43.80;21.73;;;;;;;2.63;100.00;103228.09;5071474;28;20052;-31
2022/01/11 09:39:57;;;;;;;43.03;21.42;;;;;;;2.79;100.00;103226.25;5069637;28;20477;-32
2022/01/11 09:42:27;;;;;;;43.13;23.13;;;;;;;2.97;100.00;103218.44;5070001;28;20045;-35
2022/01/11 09:44:58;;;;;;;44.55;22.40;;;;;;;3.13;100.00;103215.47;5071270;28;20071;-35
2022/01/11 09:47:27;;;;;;;45.67;22.23;;;;;;;3.30;100.00;103227.13;5071073;28;20509;-38
2022/01/11 09:49:55;;;;;;;41.28;20.38;;;;;;;3.42;100.00;103218.16;5070547;28;20354;-39
2022/01/11 09:52:28;;;;;;;42.35;21.75;;;;;;;3.44;100.00;103229.00;5070361;28;20119;-41
2022/01/11 09:54:56;;;;;;;38.75;19.33;;;;;;;3.40;100.00;103235.94;5071872;28;20056;-37
2022/01/11 09:57:27;;;;;;;37.90;20.00;;;;;;;3.35;100.00;103231.03;5071509;28;20095;-33
2022/01/11 10:00:17;;;;;;;34.22;18.73;;;;;;;3.29;100.00;103228.19;5071036;28;20060;-44
2022/01/11 10:02:47;;;;;;;34.67;18.80;;;;;;;3.26;100.00;103226.66;5071093;28;20478;-34
2022/01/11 10:05:36;;;;;;;40.42;19.25;;;;;;;3.25;100.00;103221.34;5071613;28;20044;-36
2022/01/11 10:08:21;;;;;;;33.17;18.25;;;;;;;3.26;100.00;103223.03;5071016;28;20401;-38
2022/01/11 10:10:52;;;;;;;38.53;19.88;;;;;;;3.22;100.00;103225.34;5071562;28;20087;-31
2022/01/11 10:13:35;;;;;;;37.50;19.77;;;;;;;3.25;100.00;103229.63;5070053;28;20052;-35
2022/01/11 10:16:19;;;;;;;34.53;17.80;;;;;;;3.25;100.00;103232.38;5071320;28;20044;-37
2022/01/11 10:18:47;;;;;;;37.88;20.33;;;;;;;3.22;100.00;103241.03;5070593;28;20051;-34
2022/01/11 10:21:34;;;;;;;33.47;18.08;;;;;;;3.21;100.00;103242.06;5070563;28;20044;-40
2022/01/11 10:24:24;;;;;;;32.80;18.90;;;;;;;3.19;100.00;103239.53;5070807;28;20458;-36
2022/01/11 10:26:56;;;;;;;34.85;19.15;;;;;;;3.19;100.00;103227.66;5070206;28;20044;-35
2022/01/11 10:29:28;;;;;;;32.20;16.85;;;;;;;3.24;100.00;103225.13;5070398;28;20056;-35
2022/01/11 10:32:02;;;;;;;37.25;19.60;;;;;;;3.26;100.00;103223.91;5070978;28;20045;-38
2022/01/11 10:34:32;;;;;;;35.22;18.33;;;;;;;3.28;100.00;103227.31;5069851;28;20052;-34
2022/01/11 10:37:04;;;;;;;34.78;18.13;;;;;;;3.30;100.00;103232.66;5071149;28;20084;-37
2022/01/11 10:39:38;;;;;;;34.92;19.30;;;;;;;3.29;100.00;103233.69;5070293;28;20055;-35
2022/01/11 10:42:25;;;;;;;31.33;16.85;;;;;;;3.33;100.00;103235.03;5069933;28;20044;-34
2022/01/11 10:44:58;;;;;;;36.33;19.42;;;;;;;3.34;100.00;103236.75;5070407;28;20047;-33
2022/01/11 10:47:33;;;;;;;33.28;18.05;;;;;;;3.35;100.00;103233.81;5070600;28;20434;-39
2022/01/11 10:50:07;;;;;;;34.72;19.40;;;;;;;3.38;100.00;103229.81;5069108;28;20044;-33
2022/01/11 10:52:35;;;;;;;;;;;;;;;3.36;100.00;103240.16;5071207;28;20053;-37
2022/01/11 10:55:17;;;;;;;32.88;17.48;;;;;;;3.37;100.00;103231.72;5069405;28;19931;-39
2022/01/11 10:57:51;;;;;;;31.67;16.05;;;;;;;3.44;100.00;103223.47;5070204;28;20512;-38
2022/01/11 11:00:25;;;;;;;37.97;17.50;;;;;;;3.49;100.00;103234.81;5069883;28;20603;-39
2022/01/11 11:02:56;;;;;;;31.67;17.80;;;;;;;3.50;100.00;103236.53;5069772;28;20052;-39
2022/01/11 11:05:30;;;;;;;28.88;14.48;;;;;;;3.53;100.00;103238.03;5069784;28;20106;-34
2022/01/11 11:08:06;;;;;;;28.33;15.68;;;;;;;3.56;100.00;103234.91;5070090;28;20150;-32
2022/01/11 11:10:39;;;;;;;25.27;15.13;;;;;;;3.57;100.00;103240.22;5068630;28;20056;-37
2022/01/11 11:13:09;;;;;;;30.27;16.35;;;;;;;3.60;100.00;103241.72;5070213;28;20114;-40
2022/01/11 11:15:39;;;;;;;28.92;15.98;;;;;;;3.62;100.00;103228.56;5069851;28;20143;-35
2022/01/11 11:18:25;;;;;;;26.55;14.63;;;;;;;3.68;100.00;103231.41;5069528;28;20139;-32
2022/01/11 11:20:54;;;;;;;24.52;15.48;;;;;;;3.68;100.00;103230.56;5069759;28;20521;-32
2022/01/11 11:23:22;;;;;;;24.35;13.57;;;;;;;3.71;100.00;103242.06;5070464;28;20049;-36
2022/01/11 11:25:51;;;;;;;27.90;14.80;;;;;;;3.77;100.00;103235.78;5071129;28;20521;-33
2022/01/11 11:28:21;;;;;;;29.27;16.30;;;;;;;3.79;100.00;103233.69;5071251;28;20395;-35